createdAt,value
2023-09-14T00:00:54.829Z,18.72
2023-09-14T00:03:22.484Z,18.65
2023-09-14T00:05:52.061Z,18.65
2023-09-14T00:08:21.468Z,18.37
2023-09-14T00:10:54.977Z,18.07
2023-09-14T00:13:22.403Z,18.32
2023-09-14T00:15:49.991Z,18.41
2023-09-14T00:18:17.707Z,18.50
2023-09-14T00:20:45.344Z,18.46
2023-09-14T00:23:12.777Z,18.00
2023-09-14T00:25:41.562Z,18.33
2023-09-14T00:28:09.059Z,18.28
2023-09-14T00:30:36.591Z,18.21
2023-09-14T00:33:04.179Z,18.47
2023-09-14T00:35:31.909Z,18.37
2023-09-14T00:37:59.324Z,18.12
2023-09-14T00:40:27.521Z,18.12
2023-09-14T00:42:56.483Z,18.05
2023-09-14T00:45:24.613Z,18.13
2023-09-14T00:47:53.957Z,18.15
2023-09-14T00:50:22.889Z,17.71
2023-09-14T00:52:54.018Z,17.91
2023-09-14T00:55:21.702Z,18.14
2023-09-14T00:57:49.871Z,18.36
2023-09-14T01:00:19.680Z,17.85
2023-09-14T01:02:47.547Z,17.97
2023-09-14T01:05:15.460Z,17.79
2023-09-14T01:07:43.139Z,18.08
2023-09-14T01:10:11.994Z,18.11
2023-09-14T01:12:40.445Z,17.75
2023-09-14T01:15:15.991Z,17.83
2023-09-14T01:17:54.422Z,17.82
2023-09-14T01:20:41.041Z,17.82
2023-09-14T01:23:26.013Z,18.15
2023-09-14T01:25:55.138Z,17.78
2023-09-14T01:28:22.657Z,17.58
2023-09-14T01:30:50.141Z,17.50
2023-09-14T01:33:18.995Z,18.05
2023-09-14T01:35:51.760Z,17.94
2023-09-14T01:38:19.795Z,18.13
2023-09-14T01:40:49.339Z,17.89
2023-09-14T01:43:19.149Z,17.89
2023-09-14T01:45:47.371Z,17.68
2023-09-14T01:48:19.502Z,17.58
2023-09-14T01:50:47.070Z,17.46
2023-09-14T01:53:14.564Z,17.60
2023-09-14T01:55:42.005Z,17.49
2023-09-14T01:58:10.475Z,17.59
2023-09-14T02:00:39.354Z,17.58
2023-09-14T02:03:06.943Z,17.68
2023-09-14T02:05:34.502Z,17.54
2023-09-14T02:08:02.097Z,17.62
2023-09-14T02:10:29.566Z,17.59
2023-09-14T02:12:57.087Z,17.59
2023-09-14T02:15:24.534Z,17.38
2023-09-14T02:17:53.565Z,17.27
2023-09-14T02:20:20.995Z,17.26
2023-09-14T02:22:48.933Z,17.11
2023-09-14T02:25:16.516Z,17.11
2023-09-14T02:27:45.209Z,16.96
2023-09-14T02:30:13.432Z,16.91
2023-09-14T02:32:40.861Z,17.01
2023-09-14T02:35:10.430Z,16.64
2023-09-14T02:37:37.991Z,16.38
2023-09-14T02:40:07.276Z,16.44
2023-09-14T02:42:37.857Z,16.38
2023-09-14T02:45:07.511Z,16.70
2023-09-14T02:47:35.162Z,16.57
2023-09-14T02:50:02.805Z,16.53
2023-09-14T02:52:31.613Z,16.69
2023-09-14T02:55:00.373Z,16.42
2023-09-14T02:57:27.929Z,16.46
2023-09-14T02:59:55.564Z,16.67
2023-09-14T03:02:23.581Z,16.63
2023-09-14T03:04:51.076Z,16.52
2023-09-14T03:07:18.685Z,16.26
2023-09-14T03:09:47.478Z,16.42
2023-09-14T03:12:14.943Z,16.28
2023-09-14T03:14:42.434Z,16.36
2023-09-14T03:17:09.896Z,16.39
2023-09-14T03:19:37.332Z,16.23
2023-09-14T03:22:05.242Z,16.07
2023-09-14T03:24:32.724Z,15.84
2023-09-14T03:27:01.499Z,16.07
2023-09-14T03:29:30.045Z,16.34
2023-09-14T03:31:57.492Z,16.00
2023-09-14T03:34:25.011Z,16.08
2023-09-14T03:36:52.608Z,16.21
2023-09-14T03:39:20.090Z,16.06
2023-09-14T03:41:50.183Z,15.54
2023-09-14T03:44:18.979Z,15.50
2023-09-14T03:46:46.544Z,16.00
2023-09-14T03:49:14.078Z,16.05
2023-09-14T03:51:41.579Z,16.23
2023-09-14T03:54:10.095Z,16.23
2023-09-14T03:56:38.626Z,16.12
2023-09-14T03:59:06.236Z,16.06
2023-09-14T04:01:35.138Z,16.13
2023-09-14T04:04:03.731Z,16.07
2023-09-14T04:06:31.334Z,16.21
2023-09-14T04:08:58.762Z,16.13
2023-09-14T04:11:26.244Z,16.15
2023-09-14T04:13:54.908Z,16.10
2023-09-14T04:16:22.423Z,16.17
2023-09-14T04:18:51.613Z,16.28
2023-09-14T04:21:18.194Z,16.29
2023-09-14T04:23:46.365Z,16.36
2023-09-14T04:26:13.896Z,16.34
2023-09-14T04:28:41.443Z,16.24
2023-09-14T04:31:10.733Z,16.29
2023-09-14T04:33:38.390Z,16.25
2023-09-14T04:36:07.623Z,16.30
2023-09-14T04:38:35.316Z,16.31
2023-09-14T04:41:04.997Z,16.37
2023-09-14T04:43:33.664Z,16.30
2023-09-14T04:46:02.306Z,16.32
2023-09-14T04:48:30.840Z,16.25
2023-09-14T04:50:58.641Z,16.25
2023-09-14T04:53:28.321Z,16.18
2023-09-14T04:55:56.044Z,16.19
2023-09-14T04:58:26.518Z,16.34
2023-09-14T05:00:55.586Z,16.26
2023-09-14T05:03:23.595Z,16.12
2023-09-14T05:05:52.972Z,15.99
2023-09-14T05:08:20.645Z,16.07
2023-09-14T05:10:51.807Z,16.21
2023-09-14T05:13:21.613Z,16.44
2023-09-14T05:15:49.398Z,16.37
2023-09-14T05:18:16.863Z,16.47
2023-09-14T05:20:45.054Z,16.48
2023-09-14T05:23:18.483Z,16.41
2023-09-14T05:25:46.617Z,16.53
2023-09-14T05:28:16.439Z,16.68
2023-09-14T05:30:44.837Z,16.70
2023-09-14T05:33:12.522Z,16.61
2023-09-14T05:35:40.254Z,16.65
2023-09-14T05:38:07.680Z,16.60
2023-09-14T05:40:35.130Z,16.73
2023-09-14T05:43:02.673Z,16.75
2023-09-14T05:45:31.456Z,16.98
2023-09-14T05:47:58.911Z,16.99
2023-09-14T05:50:26.371Z,16.93
2023-09-14T05:52:56.411Z,16.92
2023-09-14T05:55:23.962Z,16.80
2023-09-14T05:57:51.525Z,16.79
2023-09-14T06:00:20.148Z,16.84
2023-09-14T06:02:49.073Z,16.66
2023-09-14T06:05:25.318Z,16.73
2023-09-14T06:07:54.291Z,16.63
2023-09-14T06:10:22.121Z,16.82
2023-09-14T06:12:51.043Z,16.83
2023-09-14T06:15:18.644Z,16.84
2023-09-14T06:17:46.085Z,16.56
2023-09-14T06:20:15.166Z,16.41
2023-09-14T06:22:42.785Z,16.53
2023-09-14T06:25:10.766Z,16.89
2023-09-14T06:27:38.332Z,16.85
2023-09-14T06:30:07.550Z,16.59
2023-09-14T06:32:35.061Z,16.64
2023-09-14T06:35:02.638Z,16.84
2023-09-14T06:37:31.522Z,16.99
2023-09-14T06:39:59.126Z,16.82
2023-09-14T06:42:26.850Z,17.03
2023-09-14T06:44:54.330Z,17.20
2023-09-14T06:47:21.774Z,17.23
2023-09-14T06:49:49.499Z,17.31
2023-09-14T06:52:16.993Z,17.42
2023-09-14T06:54:46.503Z,17.49
2023-09-14T06:57:14.016Z,17.61
2023-09-14T06:59:41.521Z,17.26
2023-09-14T07:02:09.000Z,17.49
2023-09-14T07:04:36.687Z,17.68
2023-09-14T07:07:04.368Z,17.64
2023-09-14T07:09:32.100Z,17.77
2023-09-14T07:12:01.277Z,17.93
2023-09-14T07:14:28.751Z,17.77
2023-09-14T07:16:56.450Z,17.93
2023-09-14T07:19:27.450Z,17.90
2023-09-14T07:21:55.908Z,17.88
2023-09-14T07:24:23.717Z,17.36
2023-09-14T07:26:51.178Z,17.20
2023-09-14T07:29:20.820Z,17.84
2023-09-14T07:31:49.642Z,17.53
2023-09-14T07:34:17.192Z,17.96
2023-09-14T07:36:45.120Z,18.30
2023-09-14T07:39:12.590Z,18.29
2023-09-14T07:41:40.034Z,18.27
2023-09-14T07:44:07.610Z,18.40
2023-09-14T07:46:38.080Z,18.42
2023-09-14T07:49:05.758Z,18.53
2023-09-14T07:51:33.354Z,18.55
2023-09-14T07:54:01.490Z,18.66
2023-09-14T07:56:29.126Z,18.76
2023-09-14T07:58:56.595Z,18.88
2023-09-14T08:01:24.144Z,18.38
2023-09-14T08:03:53.216Z,18.69
2023-09-14T08:06:24.623Z,18.72
2023-09-14T08:08:52.774Z,18.84
2023-09-14T08:11:20.237Z,18.71
2023-09-14T08:13:48.036Z,18.81
2023-09-14T08:16:15.850Z,18.39
2023-09-14T08:18:43.940Z,18.86
2023-09-14T08:21:13.088Z,18.69
2023-09-14T08:23:40.572Z,19.11
2023-09-14T08:26:08.197Z,18.88
2023-09-14T08:28:36.266Z,18.75
2023-09-14T08:31:03.879Z,19.01
2023-09-14T08:33:31.682Z,19.22
2023-09-14T08:35:59.170Z,18.52
2023-09-14T08:38:28.024Z,18.84
2023-09-14T08:40:59.072Z,18.69
2023-09-14T08:43:26.797Z,18.75
2023-09-14T08:45:56.666Z,17.89
2023-09-14T08:48:28.350Z,19.17
2023-09-14T08:50:57.621Z,19.48
2023-09-14T08:53:25.628Z,19.29
2023-09-14T08:55:54.439Z,18.88
2023-09-14T08:58:22.392Z,19.32
2023-09-14T09:00:50.761Z,19.56
2023-09-14T09:03:18.968Z,19.21
2023-09-14T09:05:47.065Z,19.88
2023-09-14T09:08:16.880Z,20.08
2023-09-14T09:10:45.188Z,20.42
2023-09-14T09:13:14.074Z,20.04
2023-09-14T09:15:41.530Z,19.38
2023-09-14T09:18:11.670Z,19.56
2023-09-14T09:20:41.807Z,20.16
2023-09-14T09:23:10.387Z,19.77
2023-09-14T09:25:45.956Z,19.73
2023-09-14T09:28:14.812Z,19.82
2023-09-14T09:30:42.653Z,20.41
2023-09-14T09:33:10.273Z,19.86
2023-09-14T09:35:37.826Z,19.69
2023-09-14T09:38:13.484Z,19.10
2023-09-14T09:40:43.012Z,19.61
2023-09-14T09:43:10.796Z,19.89
2023-09-14T09:45:43.224Z,20.63
2023-09-14T09:48:11.316Z,20.42
2023-09-14T09:50:39.109Z,20.15
2023-09-14T09:53:11.596Z,20.29
2023-09-14T09:55:39.294Z,20.52
2023-09-14T09:58:09.100Z,20.22
2023-09-14T10:00:38.069Z,20.59
2023-09-14T10:03:07.359Z,20.64
2023-09-14T10:05:38.164Z,20.28
2023-09-14T10:08:12.811Z,19.76
2023-09-14T10:10:41.375Z,20.33
2023-09-14T10:13:09.463Z,20.05
2023-09-14T10:15:38.267Z,20.56
2023-09-14T10:18:07.728Z,20.73
2023-09-14T10:20:36.195Z,21.00
2023-09-14T10:23:04.493Z,20.79
2023-09-14T10:25:32.362Z,20.87
2023-09-14T10:28:02.888Z,21.06
2023-09-14T10:30:30.961Z,20.90
2023-09-14T10:33:00.825Z,21.01
2023-09-14T10:35:31.626Z,20.51
2023-09-14T10:38:00.395Z,19.74
2023-09-14T10:40:29.829Z,19.87
2023-09-14T10:42:57.351Z,19.91
2023-09-14T10:45:26.648Z,19.88
2023-09-14T10:47:55.569Z,20.31
2023-09-14T10:50:23.924Z,20.08
2023-09-14T10:52:54.911Z,20.26
2023-09-14T10:55:26.520Z,20.40
2023-09-14T10:57:54.119Z,20.40
2023-09-14T11:03:20.715Z,19.64
2023-09-14T11:05:53.095Z,20.51
2023-09-14T11:08:23.257Z,20.06
2023-09-14T11:10:56.452Z,20.59
2023-09-14T11:13:35.669Z,20.24
2023-09-14T11:16:13.143Z,20.77
2023-09-14T11:18:56.531Z,20.14
2023-09-14T11:21:46.582Z,19.71
2023-09-14T11:24:18.543Z,20.62
2023-09-14T11:26:53.192Z,20.92
2023-09-14T11:29:25.320Z,20.99
2023-09-14T11:32:02.200Z,21.08
2023-09-14T11:34:37.245Z,21.61
2023-09-14T11:37:09.273Z,20.84
2023-09-14T11:39:46.062Z,20.77
2023-09-14T11:42:19.617Z,20.75
2023-09-14T11:44:52.390Z,21.48
2023-09-14T11:47:27.338Z,21.55
2023-09-14T11:49:59.146Z,20.97
2023-09-14T11:52:28.173Z,21.11
2023-09-14T11:54:56.937Z,20.99
2023-09-14T11:57:28.615Z,21.03
2023-09-14T11:59:56.151Z,21.38
2023-09-14T12:02:23.862Z,21.52
2023-09-14T12:04:52.298Z,21.72
2023-09-14T12:07:22.696Z,21.19
2023-09-14T12:09:50.912Z,21.00
2023-09-14T12:12:28.795Z,20.87
2023-09-14T12:14:58.676Z,20.85
2023-09-14T12:17:28.075Z,20.95
2023-09-14T12:19:57.717Z,21.08
2023-09-14T12:22:27.450Z,21.47
2023-09-14T12:24:56.314Z,21.19
2023-09-14T12:27:24.532Z,21.38
2023-09-14T12:29:54.003Z,21.69
2023-09-14T12:32:21.457Z,21.02
2023-09-14T12:34:49.524Z,21.11
2023-09-14T12:37:19.126Z,20.81
2023-09-14T12:39:52.797Z,20.28
2023-09-14T12:42:21.571Z,20.86
2023-09-14T12:44:49.324Z,20.92
2023-09-14T12:47:18.321Z,21.51
2023-09-14T12:49:46.162Z,21.55
2023-09-14T12:52:14.067Z,21.03
2023-09-14T12:54:43.243Z,21.56
2023-09-14T12:57:11.979Z,21.40
2023-09-14T12:59:40.308Z,21.23
2023-09-14T13:02:08.071Z,21.63
2023-09-14T13:04:38.659Z,21.71
2023-09-14T13:07:06.230Z,21.40
2023-09-14T13:09:35.887Z,21.76
2023-09-14T13:12:03.816Z,21.89
2023-09-14T13:14:31.358Z,21.56
2023-09-14T13:16:59.581Z,21.54
2023-09-14T13:19:28.591Z,21.63
2023-09-14T13:22:06.963Z,21.89
2023-09-14T13:24:34.501Z,21.92
2023-09-14T13:27:02.072Z,20.64
2023-09-14T13:29:29.580Z,21.44
2023-09-14T13:31:57.027Z,21.59
2023-09-14T13:34:24.455Z,21.13
2023-09-14T13:36:54.074Z,21.35
2023-09-14T13:39:23.059Z,20.84
2023-09-14T13:41:53.159Z,21.40
2023-09-14T13:44:22.005Z,21.69
2023-09-14T13:46:49.464Z,21.92
2023-09-14T13:49:16.905Z,21.39
2023-09-14T13:51:45.019Z,21.72
2023-09-14T13:54:12.536Z,21.89
2023-09-14T13:56:41.362Z,21.46
2023-09-14T13:59:08.798Z,21.35
2023-09-14T14:01:37.041Z,21.95
2023-09-14T14:04:06.581Z,21.59
2023-09-14T14:06:34.251Z,21.12
2023-09-14T14:09:01.700Z,21.61
2023-09-14T14:11:29.126Z,21.99
2023-09-14T14:13:59.253Z,21.89
2023-09-14T14:16:26.749Z,21.19
2023-09-14T14:18:54.333Z,21.63
2023-09-14T14:21:22.961Z,21.89
2023-09-14T14:23:50.599Z,21.78
2023-09-14T14:26:18.123Z,22.00
2023-09-14T14:28:45.711Z,21.68
2023-09-14T14:31:14.908Z,21.74
2023-09-14T14:33:42.514Z,21.52
2023-09-14T14:36:09.968Z,21.80
2023-09-14T14:38:37.419Z,21.45
2023-09-14T14:43:35.836Z,21.29
2023-09-14T14:46:04.899Z,21.59
2023-09-14T14:48:33.801Z,21.51
2023-09-14T14:51:02.858Z,22.05
2023-09-14T14:53:30.533Z,22.13
2023-09-14T14:55:57.968Z,22.11
2023-09-14T14:58:26.286Z,21.93
2023-09-14T15:00:53.923Z,22.07
2023-09-14T15:03:21.473Z,21.75
2023-09-14T15:05:50.347Z,21.84
2023-09-14T15:08:18.346Z,21.61
2023-09-14T15:10:45.776Z,21.67
2023-09-14T15:13:13.215Z,21.36
2023-09-14T15:15:40.720Z,21.35
2023-09-14T15:18:08.514Z,21.86
2023-09-14T15:20:36.053Z,22.18
2023-09-14T15:23:05.025Z,22.05
2023-09-14T15:25:32.530Z,21.74
2023-09-14T15:28:00.718Z,21.59
2023-09-14T15:30:29.035Z,21.50
2023-09-14T15:32:56.556Z,21.63
2023-09-14T15:35:24.280Z,21.94
2023-09-14T15:37:51.801Z,21.57
2023-09-14T15:40:20.620Z,21.55
2023-09-14T15:42:48.184Z,21.49
2023-09-14T15:45:15.681Z,21.57
2023-09-14T15:47:45.276Z,21.79
2023-09-14T15:50:12.921Z,21.78
2023-09-14T15:52:40.504Z,21.73
2023-09-14T15:55:13.976Z,21.64
2023-09-14T15:57:50.604Z,21.67
2023-09-14T16:00:18.651Z,21.95
2023-09-14T16:02:46.287Z,21.68
2023-09-14T16:05:13.781Z,21.95
2023-09-14T16:07:42.077Z,21.84
2023-09-14T16:10:12.699Z,21.82
2023-09-14T16:12:40.494Z,21.78
2023-09-14T16:15:10.909Z,21.94
2023-09-14T16:17:38.782Z,21.82
2023-09-14T16:20:09.261Z,21.69
2023-09-14T16:22:36.711Z,21.79
2023-09-14T16:25:09.353Z,21.79
2023-09-14T16:27:37.401Z,21.82
2023-09-14T16:30:06.288Z,21.82
2023-09-14T16:32:35.375Z,21.77
2023-09-14T16:35:02.875Z,21.76
2023-09-14T16:37:30.327Z,21.28
2023-09-14T16:39:59.205Z,21.43
2023-09-14T16:42:26.861Z,21.70
2023-09-14T16:44:54.297Z,21.72
2023-09-14T16:47:21.719Z,21.65
2023-09-14T16:49:50.471Z,21.43
2023-09-14T16:52:18.205Z,20.87
2023-09-14T16:54:45.746Z,21.16
2023-09-14T16:57:13.328Z,21.38
2023-09-14T16:59:40.932Z,21.37
2023-09-14T17:02:10.461Z,21.17
2023-09-14T17:04:37.914Z,21.45
2023-09-14T17:07:06.768Z,21.39
2023-09-14T17:09:35.228Z,21.45
2023-09-14T17:12:02.686Z,21.31
2023-09-14T17:14:30.179Z,21.00
2023-09-14T17:16:57.652Z,21.09
2023-09-14T17:19:25.117Z,21.24
2023-09-14T17:21:52.646Z,21.26
2023-09-14T17:24:21.494Z,21.28
2023-09-14T17:26:49.418Z,21.25
2023-09-14T17:29:18.257Z,21.11
2023-09-14T17:31:45.777Z,20.98
2023-09-14T17:34:13.242Z,21.05
2023-09-14T17:36:43.499Z,21.13
2023-09-14T17:39:11.326Z,21.08
2023-09-14T17:41:40.078Z,21.01
2023-09-14T17:44:08.052Z,20.90
2023-09-14T17:46:35.678Z,20.87
2023-09-14T17:49:06.407Z,20.65
2023-09-14T17:51:34.783Z,20.59
2023-09-14T17:54:02.245Z,20.57
2023-09-14T17:56:29.692Z,20.63
2023-09-14T17:58:58.499Z,20.58
2023-09-14T18:01:26.159Z,20.46
2023-09-14T18:03:53.672Z,20.46
2023-09-14T18:06:21.137Z,20.42
2023-09-14T18:08:49.170Z,20.41
2023-09-14T18:11:17.323Z,20.34
2023-09-14T18:13:44.861Z,20.10
2023-09-14T18:16:15.750Z,20.31
2023-09-14T18:18:43.557Z,20.14
2023-09-14T18:21:13.771Z,20.26
2023-09-14T18:23:42.693Z,20.22
2023-09-14T18:26:10.380Z,20.14
2023-09-14T18:28:37.869Z,20.11
2023-09-14T18:31:06.194Z,20.13
2023-09-14T18:33:35.830Z,20.10
2023-09-14T18:36:03.375Z,20.13
2023-09-14T18:38:30.873Z,20.07
2023-09-14T18:40:59.663Z,20.04
2023-09-14T18:43:27.172Z,20.00
2023-09-14T18:45:54.881Z,19.89
2023-09-14T18:48:24.614Z,19.94
2023-09-14T18:51:00.127Z,19.74
2023-09-14T18:53:27.692Z,19.73
2023-09-14T18:55:55.173Z,19.57
2023-09-14T18:58:53.022Z,19.56
2023-09-14T19:01:11.638Z,19.67
2023-09-14T19:03:39.657Z,19.53
2023-09-14T19:06:08.527Z,19.68
2023-09-14T19:08:36.915Z,19.57
2023-09-14T19:11:06.663Z,19.55
2023-09-14T19:13:34.978Z,19.61
2023-09-14T19:16:02.553Z,19.56
2023-09-14T19:18:30.155Z,19.67
2023-09-14T19:20:59.219Z,19.68
2023-09-14T19:23:28.348Z,19.71
2023-09-14T19:25:56.393Z,19.47
2023-09-14T19:28:25.603Z,19.64
2023-09-14T19:30:53.121Z,19.48
2023-09-14T19:33:21.296Z,19.49
2023-09-14T19:35:53.144Z,19.42
2023-09-14T19:38:21.282Z,19.69
2023-09-14T19:40:50.810Z,19.60
2023-09-14T19:43:18.225Z,19.42
2023-09-14T19:45:45.752Z,19.31
2023-09-14T19:48:13.352Z,19.04
2023-09-14T19:50:41.779Z,19.22
2023-09-14T19:53:09.266Z,19.18
2023-09-14T19:55:37.110Z,19.03
2023-09-14T19:58:06.223Z,19.15
2023-09-14T20:00:33.793Z,19.25
2023-09-14T20:03:01.363Z,19.22
2023-09-14T20:05:28.938Z,19.27
2023-09-14T20:08:05.360Z,19.16
2023-09-14T20:10:32.770Z,19.02
2023-09-14T20:13:00.441Z,19.02
2023-09-14T20:15:29.895Z,18.99
2023-09-14T20:17:58.622Z,18.93
2023-09-14T20:20:26.116Z,18.77
2023-09-14T20:22:53.618Z,18.67
2023-09-14T20:25:21.101Z,18.66
2023-09-14T20:27:48.585Z,18.66
2023-09-14T20:30:16.189Z,18.62
2023-09-14T20:32:45.094Z,18.66
2023-09-14T20:35:12.724Z,18.68
2023-09-14T20:37:40.154Z,18.62
2023-09-14T20:40:11.771Z,18.71
2023-09-14T20:42:40.646Z,18.80
2023-09-14T20:45:12.919Z,18.78
2023-09-14T20:47:41.741Z,18.58
2023-09-14T20:50:14.195Z,18.55
2023-09-14T20:52:42.029Z,18.45
2023-09-14T20:55:13.467Z,18.35
2023-09-14T20:57:41.870Z,18.41
2023-09-14T21:00:12.888Z,18.45
2023-09-14T21:02:41.107Z,18.44
2023-09-14T21:05:10.284Z,18.27
2023-09-14T21:07:38.064Z,18.36
2023-09-14T21:10:06.217Z,18.37
2023-09-14T21:12:33.750Z,18.21
2023-09-14T21:15:01.426Z,18.32
2023-09-14T21:17:29.060Z,18.40
2023-09-14T21:19:56.645Z,18.42
2023-09-14T21:22:25.910Z,18.49
2023-09-14T21:24:54.060Z,18.55
2023-09-14T21:27:21.634Z,18.47
2023-09-14T21:29:49.582Z,18.44
2023-09-14T21:32:17.463Z,18.60
2023-09-14T21:34:45.134Z,18.57
2023-09-14T21:37:13.709Z,18.49
2023-09-14T21:39:42.570Z,18.51
2023-09-14T21:42:10.049Z,18.55
2023-09-14T21:44:37.767Z,18.31
2023-09-14T21:47:05.663Z,18.35
2023-09-14T21:49:35.022Z,18.33
2023-09-14T21:52:17.008Z,18.10
2023-09-14T21:54:47.295Z,18.07
2023-09-14T21:57:18.481Z,17.95
2023-09-14T21:59:45.939Z,17.83
2023-09-14T22:02:15.008Z,17.93
2023-09-14T22:04:42.550Z,17.96
2023-09-14T22:07:10.039Z,18.10
2023-09-14T22:09:38.485Z,17.85
2023-09-14T22:12:07.728Z,18.03
2023-09-14T22:14:35.348Z,18.03
2023-09-14T22:17:09.217Z,18.16
2023-09-14T22:19:36.996Z,18.28
2023-09-14T22:22:06.724Z,18.23
2023-09-14T22:24:34.693Z,18.33
2023-09-14T22:27:02.152Z,18.06
2023-09-14T22:29:33.849Z,17.63
2023-09-14T22:32:01.357Z,17.77
2023-09-14T22:34:29.452Z,17.92
2023-09-14T22:36:57.127Z,18.06
2023-09-14T22:39:25.218Z,18.01
2023-09-14T22:41:53.023Z,18.01
2023-09-14T22:44:20.509Z,18.00
2023-09-14T22:46:49.443Z,17.82
2023-09-14T22:49:17.160Z,17.85
2023-09-14T22:51:44.884Z,18.08
2023-09-14T22:54:12.383Z,18.03
2023-09-14T22:56:41.635Z,18.02
2023-09-14T22:59:09.097Z,18.04
2023-09-14T23:01:36.721Z,18.11
2023-09-14T23:04:06.072Z,18.04
2023-09-14T23:06:34.591Z,17.92
2023-09-14T23:09:04.074Z,17.75
2023-09-14T23:11:38.371Z,17.85
2023-09-14T23:14:06.037Z,17.83
2023-09-14T23:16:39.942Z,17.72
2023-09-14T23:19:10.214Z,17.72
2023-09-14T23:21:38.648Z,17.95
2023-09-14T23:24:10.748Z,17.70
2023-09-14T23:26:42.601Z,18.02
2023-09-14T23:29:12.978Z,18.03
2023-09-14T23:31:43.646Z,17.71
2023-09-14T23:34:13.553Z,17.76
2023-09-14T23:36:42.943Z,17.96
2023-09-14T23:39:12.475Z,18.05
2023-09-14T23:41:40.612Z,17.84
2023-09-14T23:44:10.076Z,17.84
2023-09-14T23:46:40.015Z,17.89
2023-09-14T23:49:09.390Z,18.03
2023-09-14T23:51:40.602Z,17.95
2023-09-14T23:54:08.507Z,17.96
2023-09-14T23:56:36.765Z,17.97
2023-09-14T23:59:05.568Z,17.82
